createdAt,value
2018-07-22T00:01:50.877Z,99454.72
2018-07-22T00:04:18.475Z,99455.47
2018-07-22T00:06:46.201Z,99456.61
2018-07-22T00:09:13.933Z,99456.61
2018-07-22T00:11:41.541Z,99456.05
2018-07-22T00:14:15.922Z,99456.98
2018-07-22T00:16:43.622Z,99460.03
2018-07-22T00:19:11.338Z,99459.11
2018-07-22T00:21:39.069Z,99468.86
2018-07-22T00:24:07.507Z,99457.16
2018-07-22T00:26:35.080Z,99456.85
2018-07-22T00:29:02.743Z,99460.44
2018-07-22T00:31:30.538Z,99455.61
2018-07-22T00:33:58.106Z,99454.38
2018-07-22T00:36:25.764Z,99450.81
2018-07-22T00:38:53.396Z,99452.44
2018-07-22T00:41:21.183Z,99454.47
2018-07-22T00:43:48.808Z,99456.19
2018-07-22T00:46:16.583Z,99451.55
2018-07-22T00:48:44.273Z,99454.44
2018-07-22T00:51:12.009Z,99450.41
2018-07-22T00:53:39.644Z,99445.48
2018-07-22T00:56:07.280Z,99449.36
2018-07-22T00:58:34.926Z,99447.17
2018-07-22T01:01:03.377Z,99449.47
2018-07-22T01:03:31.039Z,99452.34
2018-07-22T01:05:58.673Z,99456.56
2018-07-22T01:08:26.316Z,99457.65
2018-07-22T01:10:53.938Z,99459.96
2018-07-22T01:13:22.598Z,99455.00
2018-07-22T01:15:50.293Z,99456.43
2018-07-22T01:18:18.043Z,99458.59
2018-07-22T01:20:45.767Z,99453.48
2018-07-22T01:23:13.437Z,99452.52
2018-07-22T01:25:41.681Z,99443.78
2018-07-22T01:28:09.378Z,99441.49
2018-07-22T01:30:37.036Z,99443.55
2018-07-22T01:33:04.698Z,99444.56
2018-07-22T01:35:32.421Z,99441.77
2018-07-22T01:38:00.064Z,99448.44
2018-07-22T01:40:27.743Z,99442.75
2018-07-22T01:42:55.465Z,99450.78
2018-07-22T01:45:23.148Z,99444.03
2018-07-22T01:47:50.781Z,99443.30
2018-07-22T01:50:18.471Z,99447.19
2018-07-22T01:52:46.085Z,99452.33
2018-07-22T01:55:13.791Z,99445.08
2018-07-22T01:57:41.450Z,99445.16
2018-07-22T02:00:09.350Z,99448.84
2018-07-22T02:02:36.970Z,99448.34
2018-07-22T02:05:05.041Z,99453.47
2018-07-22T02:07:33.387Z,99457.05
2018-07-22T02:10:01.001Z,99452.80
2018-07-22T02:12:28.877Z,99454.20
2018-07-22T02:14:56.547Z,99458.91
2018-07-22T02:17:24.264Z,99453.58
2018-07-22T02:19:51.944Z,99451.38
2018-07-22T02:22:19.590Z,99453.08
2018-07-22T02:24:47.225Z,99454.55
2018-07-22T02:27:15.212Z,99457.58
2018-07-22T02:29:42.886Z,99455.42
2018-07-22T02:32:10.591Z,99457.45
2018-07-22T02:34:38.232Z,99460.80
2018-07-22T02:37:05.868Z,99459.16
2018-07-22T02:39:33.511Z,99466.64
2018-07-22T02:42:01.990Z,99458.22
2018-07-22T02:44:29.662Z,99453.58
2018-07-22T02:46:57.369Z,99460.19
2018-07-22T02:49:25.049Z,99455.74
2018-07-22T02:51:52.729Z,99461.07
2018-07-22T02:54:20.427Z,99458.36
2018-07-22T02:56:48.097Z,99458.75
2018-07-22T02:59:15.711Z,99457.28
2018-07-22T03:01:43.341Z,99464.45
2018-07-22T03:04:11.049Z,99462.59
2018-07-22T03:06:38.684Z,99466.64
2018-07-22T03:09:07.912Z,99463.88
2018-07-22T03:11:35.667Z,99461.20
2018-07-22T03:14:03.403Z,99464.80
2018-07-22T03:16:31.073Z,99460.89
2018-07-22T03:18:58.763Z,99460.70
2018-07-22T03:21:26.442Z,99464.45
2018-07-22T03:23:54.095Z,99464.06
2018-07-22T03:26:21.748Z,99468.06
2018-07-22T03:28:50.238Z,99468.63
2018-07-22T03:31:17.905Z,99468.00
2018-07-22T03:33:45.519Z,99469.39
2018-07-22T03:36:13.261Z,99469.66
2018-07-22T03:38:40.884Z,99462.03
2018-07-22T03:41:08.556Z,99464.91
2018-07-22T03:43:36.308Z,99467.36
2018-07-22T03:46:04.320Z,99470.19
2018-07-22T03:48:31.963Z,99476.58
2018-07-22T03:50:59.666Z,99468.63
2018-07-22T03:53:27.400Z,99479.66
2018-07-22T03:55:55.060Z,99479.75
2018-07-22T03:58:22.685Z,99485.19
2018-07-22T04:00:50.294Z,99481.95
2018-07-22T04:03:17.945Z,99485.51
2018-07-22T04:05:45.605Z,99486.17
2018-07-22T04:08:13.305Z,99493.08
2018-07-22T04:10:40.912Z,99494.45
2018-07-22T04:13:08.672Z,99489.75
2018-07-22T04:15:37.784Z,99491.73
2018-07-22T04:18:05.464Z,99489.23
2018-07-22T04:20:33.125Z,99488.21
2018-07-22T04:23:00.833Z,99499.66
2018-07-22T04:25:28.449Z,99499.97
2018-07-22T04:27:56.135Z,99493.85
2018-07-22T04:30:24.157Z,99498.96
2018-07-22T04:32:51.877Z,99503.28
2018-07-22T04:35:19.505Z,99501.54
2018-07-22T04:37:47.160Z,99508.94
2018-07-22T04:40:14.782Z,99510.51
2018-07-22T04:42:42.493Z,99515.20
2018-07-22T04:45:10.120Z,99512.84
2018-07-22T04:47:37.800Z,99512.09
2018-07-22T04:50:05.484Z,99508.20
2018-07-22T04:52:33.188Z,99513.12
2018-07-22T04:55:00.916Z,99516.53
2018-07-22T04:57:28.658Z,99514.14
2018-07-22T04:59:56.314Z,99524.95
2018-07-22T05:02:23.935Z,99513.38
2018-07-22T05:04:51.583Z,99518.06
2018-07-22T05:07:19.327Z,99514.80
2018-07-22T05:09:47.089Z,99519.19
2018-07-22T05:12:14.714Z,99524.52
2018-07-22T05:14:42.396Z,99522.81
2018-07-22T05:17:10.005Z,99529.56
2018-07-22T05:19:37.675Z,99523.58
2018-07-22T05:22:05.503Z,99528.30
2018-07-22T05:24:33.491Z,99527.23
2018-07-22T05:27:01.107Z,99528.66
2018-07-22T05:29:31.302Z,99537.42
2018-07-22T05:31:58.931Z,99535.19
2018-07-22T05:34:26.576Z,99536.61
2018-07-22T05:36:54.347Z,99535.42
2018-07-22T05:39:22.047Z,99538.05
2018-07-22T05:41:49.699Z,99534.94
2018-07-22T05:44:17.279Z,99538.92
2018-07-22T05:46:44.975Z,99543.58
2018-07-22T05:49:12.635Z,99544.70
2018-07-22T05:51:40.286Z,99548.64
2018-07-22T05:54:07.967Z,99539.85
2018-07-22T05:56:35.605Z,99543.47
2018-07-22T05:59:03.248Z,99541.64
2018-07-22T06:01:30.916Z,99541.95
2018-07-22T06:03:58.680Z,99535.84
2018-07-22T06:06:26.342Z,99540.95
2018-07-22T06:08:54.010Z,99537.95
2018-07-22T06:11:21.705Z,99544.50
2018-07-22T06:13:49.566Z,99546.88
2018-07-22T06:16:17.194Z,99548.61
2018-07-22T06:18:44.775Z,99547.97
2018-07-22T06:21:12.369Z,99550.34
2018-07-22T06:23:40.080Z,99556.53
2018-07-22T06:26:07.731Z,99550.25
2018-07-22T06:28:35.352Z,99557.16
2018-07-22T06:31:02.997Z,99558.80
2018-07-22T06:33:30.666Z,99548.07
2018-07-22T06:35:58.468Z,99551.55
2018-07-22T06:38:26.219Z,99557.17
2018-07-22T06:40:53.939Z,99553.88
2018-07-22T06:43:21.627Z,99554.52
2018-07-22T06:45:49.347Z,99562.74
2018-07-22T06:48:16.904Z,99556.64
2018-07-22T06:50:44.616Z,99557.15
2018-07-22T06:53:12.251Z,99559.15
2018-07-22T06:55:39.893Z,99554.75
2018-07-22T06:58:07.584Z,99558.50
2018-07-22T07:00:35.212Z,99557.77
2018-07-22T07:03:02.899Z,99557.50
2018-07-22T07:05:30.574Z,99557.98
2018-07-22T07:07:58.185Z,99556.20
2018-07-22T07:10:25.808Z,99560.41
2018-07-22T07:12:53.447Z,99561.59
2018-07-22T07:15:21.064Z,99557.91
2018-07-22T07:17:48.733Z,99558.66
2018-07-22T07:20:16.393Z,99556.38
2018-07-22T07:22:44.070Z,99560.23
2018-07-22T07:25:11.837Z,99559.20
2018-07-22T07:27:39.518Z,99556.83
2018-07-22T07:30:07.207Z,99560.17
2018-07-22T07:32:34.899Z,99564.00
2018-07-22T07:35:02.554Z,99561.05
2018-07-22T07:37:30.214Z,99564.06
2018-07-22T07:39:57.890Z,99562.75
2018-07-22T07:42:25.572Z,99559.45
2018-07-22T07:44:53.243Z,99565.73
2018-07-22T07:47:20.953Z,99571.41
2018-07-22T07:49:48.647Z,99561.22
2018-07-22T07:52:16.436Z,99563.74
2018-07-22T07:54:44.155Z,99562.58
2018-07-22T07:57:11.775Z,99566.80
2018-07-22T07:59:39.528Z,99569.80
2018-07-22T08:02:07.209Z,99571.81
2018-07-22T08:04:34.855Z,99577.42
2018-07-22T08:07:02.434Z,99568.50
2018-07-22T08:09:30.119Z,99571.55
2018-07-22T08:11:57.781Z,99568.73
2018-07-22T08:14:25.512Z,99579.13
2018-07-22T08:16:53.124Z,99571.72
2018-07-22T08:19:20.751Z,99570.95
2018-07-22T08:21:48.570Z,99577.09
2018-07-22T08:24:16.281Z,99578.09
2018-07-22T08:26:43.918Z,99574.92
2018-07-22T08:29:24.093Z,99574.84
2018-07-22T08:31:51.845Z,99577.00
2018-07-22T08:34:19.916Z,99581.13
2018-07-22T08:36:48.253Z,99575.75
2018-07-22T08:39:17.152Z,99577.11
2018-07-22T08:41:44.863Z,99576.27
2018-07-22T08:44:12.465Z,99578.18
2018-07-22T08:46:41.157Z,99567.52
2018-07-22T08:49:08.827Z,99564.39
2018-07-22T08:51:36.557Z,99564.76
2018-07-22T08:54:04.302Z,99564.31
2018-07-22T08:56:32.323Z,99561.06
2018-07-22T08:59:00.005Z,99569.99
2018-07-22T09:01:28.499Z,99564.20
2018-07-22T09:03:56.155Z,99562.03
2018-07-22T09:06:24.509Z,99559.94
2018-07-22T09:08:52.239Z,99568.58
2018-07-22T09:11:19.887Z,99567.41
2018-07-22T09:13:47.547Z,99558.60
2018-07-22T09:16:15.787Z,99565.64
2018-07-22T09:18:43.509Z,99554.88
2018-07-22T09:21:11.213Z,99558.11
2018-07-22T09:23:38.975Z,99558.30
2018-07-22T09:26:06.863Z,99558.21
2018-07-22T09:28:34.829Z,99568.75
2018-07-22T09:31:03.143Z,99565.05
2018-07-22T09:33:30.927Z,99570.12
2018-07-22T09:35:58.693Z,99561.75
2018-07-22T09:38:26.352Z,99574.52
2018-07-22T09:40:54.758Z,99562.88
2018-07-22T09:43:22.927Z,99564.41
2018-07-22T09:45:50.642Z,99566.73
2018-07-22T09:48:18.272Z,99559.24
2018-07-22T09:50:46.014Z,99563.02
2018-07-22T09:53:13.734Z,99562.91
2018-07-22T09:55:41.381Z,99562.23
2018-07-22T09:58:09.344Z,99556.50
2018-07-22T10:00:42.856Z,99558.70
2018-07-22T10:03:10.553Z,99552.09
2018-07-22T10:05:38.508Z,99563.64
2018-07-22T10:08:06.467Z,99570.00
2018-07-22T10:10:34.126Z,99577.14
2018-07-22T10:13:01.894Z,99575.61
2018-07-22T10:15:29.634Z,99554.63
2018-07-22T10:17:57.336Z,99559.14
2018-07-22T10:20:25.216Z,99573.52
2018-07-22T10:22:52.882Z,99564.11
2018-07-22T10:25:20.559Z,99560.59
2018-07-22T10:27:48.254Z,99563.22
2018-07-22T10:30:15.918Z,99570.09
2018-07-22T10:32:43.580Z,99565.98
2018-07-22T10:35:11.162Z,99563.67
2018-07-22T10:37:38.949Z,99561.89
2018-07-22T10:40:06.757Z,99550.98
2018-07-22T10:42:34.391Z,99562.20
2018-07-22T10:45:02.098Z,99561.38
2018-07-22T10:47:29.859Z,99556.74
2018-07-22T10:49:57.474Z,99557.78
2018-07-22T10:52:25.129Z,99560.98
2018-07-22T10:54:52.925Z,99559.34
2018-07-22T10:57:21.273Z,99556.46
2018-07-22T10:59:48.968Z,99561.35
2018-07-22T11:02:16.689Z,99543.95
2018-07-22T11:04:45.149Z,99552.69
2018-07-22T11:07:12.951Z,99557.17
2018-07-22T11:09:42.433Z,99555.38
2018-07-22T11:12:10.309Z,99546.81
2018-07-22T11:14:38.115Z,99559.69
2018-07-22T11:17:05.914Z,99551.78
2018-07-22T11:19:33.683Z,99553.02
2018-07-22T11:22:01.663Z,99547.19
2018-07-22T11:24:29.389Z,99551.98
2018-07-22T11:26:57.010Z,99552.41
2018-07-22T11:29:24.680Z,99548.95
2018-07-22T11:31:52.445Z,99538.48
2018-07-22T11:34:20.116Z,99552.13
2018-07-22T11:36:47.724Z,99551.76
2018-07-22T11:39:15.381Z,99551.47
2018-07-22T11:41:43.127Z,99556.42
2018-07-22T11:44:10.768Z,99541.78
2018-07-22T11:46:39.161Z,99541.77
2018-07-22T11:49:07.649Z,99533.97
2018-07-22T11:51:35.918Z,99535.11
2018-07-22T11:54:03.743Z,99539.06
2018-07-22T11:56:31.533Z,99540.96
2018-07-22T11:58:59.236Z,99547.12
2018-07-22T12:01:27.158Z,99534.72
2018-07-22T12:03:54.851Z,99544.88
2018-07-22T12:06:22.711Z,99544.89
2018-07-22T12:08:50.480Z,99541.64
2018-07-22T12:11:18.352Z,99534.22
2018-07-22T12:13:46.070Z,99545.85
2018-07-22T12:16:13.774Z,99550.45
2018-07-22T12:18:41.609Z,99542.59
2018-07-22T12:21:09.338Z,99550.55
2018-07-22T12:23:37.052Z,99545.64
2018-07-22T12:26:04.714Z,99551.84
2018-07-22T12:28:32.426Z,99552.09
2018-07-22T12:31:00.192Z,99555.20
2018-07-22T12:33:27.921Z,99553.22
2018-07-22T12:35:55.541Z,99550.97
2018-07-22T12:38:23.278Z,99548.66
2018-07-22T12:40:50.922Z,99546.50
2018-07-22T12:43:18.531Z,99549.36
2018-07-22T12:45:46.191Z,99544.64
2018-07-22T12:48:13.860Z,99547.36
2018-07-22T12:50:41.509Z,99543.69
2018-07-22T12:53:09.441Z,99549.73
2018-07-22T12:55:37.669Z,99545.97
2018-07-22T12:58:05.423Z,99545.45
2018-07-22T13:00:33.185Z,99555.69
2018-07-22T13:03:00.857Z,99544.91
2018-07-22T13:05:28.481Z,99549.36
2018-07-22T13:07:56.147Z,99541.00
2018-07-22T13:10:23.793Z,99539.39
2018-07-22T13:12:51.685Z,99527.98
2018-07-22T13:15:19.431Z,99529.80
2018-07-22T13:17:47.029Z,99523.80
2018-07-22T13:20:14.973Z,99545.67
2018-07-22T13:22:42.822Z,99540.07
2018-07-22T13:25:10.499Z,99533.14
2018-07-22T13:27:38.281Z,99529.28
2018-07-22T13:30:07.137Z,99531.97
2018-07-22T13:32:34.859Z,99527.29
2018-07-22T13:35:02.556Z,99530.65
2018-07-22T13:37:30.216Z,99528.42
2018-07-22T13:39:57.852Z,99526.79
2018-07-22T13:42:25.542Z,99527.39
2018-07-22T13:44:53.320Z,99530.64
2018-07-22T13:47:20.997Z,99534.34
2018-07-22T13:49:48.600Z,99530.73
2018-07-22T13:52:16.463Z,99534.23
2018-07-22T13:54:44.166Z,99528.75
2018-07-22T13:57:11.835Z,99535.50
2018-07-22T13:59:39.472Z,99523.17
2018-07-22T14:02:07.763Z,99532.56
2018-07-22T14:04:36.136Z,99532.11
2018-07-22T14:07:03.828Z,99530.31
2018-07-22T14:09:31.537Z,99526.73
2018-07-22T14:11:59.266Z,99532.09
2018-07-22T14:14:26.879Z,99526.48
2018-07-22T14:16:54.537Z,99521.65
2018-07-22T14:19:22.271Z,99520.83
2018-07-22T14:21:49.869Z,99514.97
2018-07-22T14:24:17.633Z,99518.42
2018-07-22T14:26:45.307Z,99520.55
2018-07-22T14:29:13.083Z,99519.17
2018-07-22T14:31:41.097Z,99523.52
2018-07-22T14:34:08.818Z,99520.63
2018-07-22T14:36:36.655Z,99519.34
2018-07-22T14:39:09.348Z,99518.99
2018-07-22T14:41:37.001Z,99516.55
2018-07-22T14:44:04.784Z,99512.81
2018-07-22T14:46:32.540Z,99505.78
2018-07-22T14:49:00.197Z,99513.52
2018-07-22T14:51:27.949Z,99508.48
2018-07-22T14:53:55.615Z,99503.60
2018-07-22T14:56:23.315Z,99511.61
2018-07-22T14:58:51.042Z,99505.73
2018-07-22T15:01:18.744Z,99505.21
2018-07-22T15:03:46.506Z,99501.81
2018-07-22T15:06:14.153Z,99505.08
2018-07-22T15:08:42.249Z,99504.81
2018-07-22T15:11:10.257Z,99510.20
2018-07-22T15:13:38.260Z,99507.03
2018-07-22T15:16:06.634Z,99511.64
2018-07-22T15:18:34.804Z,99501.30
2018-07-22T15:21:02.534Z,99505.91
2018-07-22T15:23:30.652Z,99506.56
2018-07-22T15:25:58.398Z,99512.66
2018-07-22T15:28:27.292Z,99508.69
2018-07-22T15:30:55.174Z,99506.47
2018-07-22T15:33:22.822Z,99515.03
2018-07-22T15:35:50.822Z,99515.66
2018-07-22T15:38:18.531Z,99511.30
2018-07-22T15:40:46.240Z,99506.20
2018-07-22T15:43:13.828Z,99514.60
2018-07-22T15:45:41.477Z,99520.70
2018-07-22T15:48:09.352Z,99519.30
2018-07-22T15:50:37.125Z,99513.10
2018-07-22T15:53:05.039Z,99517.08
2018-07-22T15:55:32.887Z,99513.23
2018-07-22T15:58:00.485Z,99525.66
2018-07-22T16:00:28.215Z,99524.12
2018-07-22T16:02:55.952Z,99529.31
2018-07-22T16:05:23.701Z,99528.13
2018-07-22T16:07:51.339Z,99519.86
2018-07-22T16:10:19.251Z,99535.75
2018-07-22T16:12:46.973Z,99527.38
2018-07-22T16:15:14.791Z,99529.47
2018-07-22T16:17:42.602Z,99536.20
2018-07-22T16:20:10.270Z,99532.80
2018-07-22T16:22:38.135Z,99545.05
2018-07-22T16:25:05.840Z,99541.00
2018-07-22T16:27:33.558Z,99542.23
2018-07-22T16:30:01.202Z,99541.81
2018-07-22T16:32:28.881Z,99539.66
2018-07-22T16:34:56.513Z,99536.83
2018-07-22T16:37:24.259Z,99533.72
2018-07-22T16:39:51.969Z,99538.30
2018-07-22T16:42:19.661Z,99541.38
2018-07-22T16:44:47.297Z,99541.88
2018-07-22T16:47:14.957Z,99545.34
2018-07-22T16:49:42.559Z,99539.80
2018-07-22T16:52:10.253Z,99539.33
2018-07-22T16:54:37.953Z,99543.50
2018-07-22T16:57:05.685Z,99545.77
2018-07-22T16:59:33.378Z,99547.69
2018-07-22T17:02:01.000Z,99536.08
2018-07-22T17:04:28.641Z,99537.38
2018-07-22T17:06:56.297Z,99536.19
2018-07-22T17:09:23.864Z,99498.14
2018-07-22T17:11:51.579Z,99539.68
2018-07-22T17:14:19.157Z,99535.94
2018-07-22T17:16:46.776Z,99540.94
2018-07-22T17:19:14.423Z,99537.05
2018-07-22T17:21:42.004Z,99536.05
2018-07-22T17:24:09.685Z,99541.15
2018-07-22T17:26:37.370Z,99545.19
2018-07-22T17:29:05.031Z,99540.33
2018-07-22T17:31:32.795Z,99542.71
2018-07-22T17:34:00.480Z,99542.09
2018-07-22T17:36:28.086Z,99539.53
2018-07-22T17:38:55.739Z,99548.19
2018-07-22T17:41:23.364Z,99549.22
2018-07-22T17:43:50.987Z,99554.83
2018-07-22T17:46:18.642Z,99556.16
2018-07-22T17:48:46.391Z,99559.97
2018-07-22T17:51:13.999Z,99551.85
2018-07-22T17:53:41.646Z,99561.76
2018-07-22T17:56:09.423Z,99559.12
2018-07-22T17:58:37.063Z,99557.73
2018-07-22T18:01:04.786Z,99558.45
2018-07-22T18:03:33.164Z,99559.47
2018-07-22T18:06:01.106Z,99573.56
2018-07-22T18:08:28.783Z,99579.38
2018-07-22T18:10:56.659Z,99577.39
2018-07-22T18:13:24.360Z,99576.56
2018-07-22T18:15:52.091Z,99576.31
2018-07-22T18:18:19.851Z,99575.72
2018-07-22T18:20:48.354Z,99571.98
2018-07-22T18:23:16.184Z,99578.69
2018-07-22T18:25:44.514Z,99581.06
2018-07-22T18:28:12.801Z,99583.67
2018-07-22T18:30:40.543Z,99585.90
2018-07-22T18:33:08.366Z,99589.77
2018-07-22T18:35:36.134Z,99589.42
2018-07-22T18:38:04.022Z,99578.73
2018-07-22T18:40:31.883Z,99594.41
2018-07-22T18:43:00.430Z,99596.55
2018-07-22T18:45:28.487Z,99595.39
2018-07-22T18:47:56.206Z,99598.02
2018-07-22T18:50:24.122Z,99602.23
2018-07-22T18:52:51.951Z,99599.48
2018-07-22T18:55:19.703Z,99605.75
2018-07-22T18:57:47.409Z,99608.11
2018-07-22T19:00:15.105Z,99608.41
2018-07-22T19:02:43.002Z,99609.70
2018-07-22T19:05:10.896Z,99618.23
2018-07-22T19:07:38.776Z,99619.27
2018-07-22T19:10:06.980Z,99627.20
2018-07-22T19:12:34.804Z,99626.86
2018-07-22T19:15:02.607Z,99636.11
2018-07-22T19:17:30.418Z,99631.34
2018-07-22T19:19:58.210Z,99620.37
2018-07-22T19:22:26.383Z,99634.66
2018-07-22T19:24:54.295Z,99632.80
2018-07-22T19:27:22.021Z,99640.61
2018-07-22T19:29:49.866Z,99645.98
2018-07-22T19:32:17.639Z,99649.58
2018-07-22T19:34:45.440Z,99649.54
2018-07-22T19:37:13.293Z,99648.94
2018-07-22T19:39:41.225Z,99653.47
2018-07-22T19:42:09.113Z,99656.12
2018-07-22T19:44:36.965Z,99657.50
2018-07-22T19:47:04.874Z,99658.56
2018-07-22T19:49:32.721Z,99657.19
2018-07-22T19:52:00.549Z,99658.43
2018-07-22T19:54:28.224Z,99653.41
2018-07-22T19:56:55.999Z,99663.45
2018-07-22T19:59:23.616Z,99664.61
2018-07-22T20:01:51.268Z,99661.75
2018-07-22T20:04:19.083Z,99659.59
2018-07-22T20:06:46.817Z,99663.45
2018-07-22T20:09:14.490Z,99671.88
2018-07-22T20:11:42.869Z,99671.49
2018-07-22T20:14:10.518Z,99672.58
2018-07-22T20:16:38.408Z,99685.06
2018-07-22T20:19:06.284Z,99683.79
2018-07-22T20:21:34.091Z,99682.84
2018-07-22T20:24:02.241Z,99689.20
2018-07-22T20:26:29.839Z,99680.92
2018-07-22T20:28:57.623Z,99679.50
2018-07-22T20:31:25.322Z,99680.66
2018-07-22T20:33:53.128Z,99684.57
2018-07-22T20:36:20.830Z,99693.67
2018-07-22T20:38:48.550Z,99692.72
2018-07-22T20:41:16.322Z,99692.01
2018-07-22T20:43:43.957Z,99689.95
2018-07-22T20:46:11.535Z,99686.45
2018-07-22T20:48:39.262Z,99688.51
2018-07-22T20:51:06.925Z,99691.19
2018-07-22T20:53:34.546Z,99690.05
2018-07-22T20:56:02.526Z,99703.87
2018-07-22T20:58:30.184Z,99701.08
2018-07-22T21:00:58.350Z,99704.80
2018-07-22T21:03:25.992Z,99702.27
2018-07-22T21:05:53.602Z,99695.78
2018-07-22T21:08:21.257Z,99693.14
2018-07-22T21:10:48.880Z,99690.79
2018-07-22T21:13:18.979Z,99698.17
2018-07-22T21:15:46.730Z,99698.17
2018-07-22T21:18:14.569Z,99701.66
2018-07-22T21:20:42.216Z,99699.98
2018-07-22T21:23:09.872Z,99714.80
2018-07-22T21:25:37.524Z,99707.36
2018-07-22T21:28:05.153Z,99712.62
2018-07-22T21:30:32.830Z,99718.84
2018-07-22T21:33:00.517Z,99717.81
2018-07-22T21:35:28.177Z,99723.32
2018-07-22T21:37:55.867Z,99719.09
2018-07-22T21:40:23.631Z,99725.94
2018-07-22T21:42:51.277Z,99730.46
2018-07-22T21:45:18.983Z,99726.13
2018-07-22T21:47:46.738Z,99728.77
2018-07-22T21:50:14.407Z,99726.98
2018-07-22T21:52:42.066Z,99726.13
2018-07-22T21:55:09.800Z,99726.12
2018-07-22T21:57:37.549Z,99726.88
2018-07-22T22:00:18.478Z,99730.51
2018-07-22T22:02:46.099Z,99728.15
2018-07-22T22:05:13.817Z,99736.16
2018-07-22T22:07:41.444Z,99730.94
2018-07-22T22:10:09.233Z,99733.48
2018-07-22T22:12:37.400Z,99729.39
2018-07-22T22:15:09.688Z,99729.41
2018-07-22T22:17:37.667Z,99739.91
2018-07-22T22:20:06.396Z,99731.78
2018-07-22T22:22:34.120Z,99738.26
2018-07-22T22:25:01.792Z,99733.84
2018-07-22T22:27:29.504Z,99734.97
2018-07-22T22:29:57.213Z,99729.42
2018-07-22T22:32:24.818Z,99731.06
2018-07-22T22:34:52.490Z,99731.74
2018-07-22T22:37:20.130Z,99734.93
2018-07-22T22:39:47.766Z,99734.63
2018-07-22T22:42:15.392Z,99739.78
2018-07-22T22:44:42.950Z,99741.63
2018-07-22T22:47:11.055Z,99739.40
2018-07-22T22:49:38.655Z,99736.13
2018-07-22T22:52:06.305Z,99740.69
2018-07-22T22:54:34.019Z,99732.47
2018-07-22T22:57:01.675Z,99729.92
2018-07-22T22:59:29.373Z,99738.30
2018-07-22T23:01:57.081Z,99738.66
2018-07-22T23:04:24.735Z,99734.84
2018-07-22T23:06:55.613Z,99727.75
2018-07-22T23:09:23.235Z,99728.44
2018-07-22T23:11:50.917Z,99731.81
2018-07-22T23:14:18.580Z,99729.55
2018-07-22T23:16:46.209Z,99729.55
2018-07-22T23:19:13.817Z,99732.28
2018-07-22T23:21:41.446Z,99727.26
2018-07-22T23:24:09.084Z,99727.86
2018-07-22T23:26:36.720Z,99728.64
2018-07-22T23:29:04.335Z,99720.58
2018-07-22T23:31:32.616Z,99728.19
2018-07-22T23:34:00.270Z,99725.23
2018-07-22T23:36:27.874Z,99727.89
2018-07-22T23:38:55.548Z,99727.91
2018-07-22T23:41:23.256Z,99722.33
2018-07-22T23:43:50.946Z,99727.48
2018-07-22T23:46:18.528Z,99728.13
2018-07-22T23:48:46.121Z,99725.64
2018-07-22T23:51:13.880Z,99719.25
2018-07-22T23:53:41.642Z,99723.34
2018-07-22T23:56:09.210Z,99722.84
2018-07-22T23:58:36.801Z,99727.61
